Time;durP1;ratioP1;P1;durP2;ratioP2;P2;SDS_P1;SDS_P2;PMS_P1;PMS_P2;Temp;Humidity;BMP_temperature;BMP_pressure;BME280_temperature;BME280_humidity;BME280_pressure;Samples;Min_cycle;Max_cycle;Signal;HPM_P1;HPM_P2
2024/01/26 00:01:34;;;;;;;143.68;46.95;;;8.50;99.90;;;;;;5113451;28;20084;-84
2024/01/26 00:03:59;;;;;;;195.35;51.40;;;8.50;99.90;;;;;;5096904;28;20040;-83
2024/01/26 00:06:25;;;;;;;171.52;50.58;;;8.60;99.90;;;;;;5096288;28;20396;-85
2024/01/26 00:08:51;;;;;;;156.00;48.35;;;8.60;99.90;;;;;;5096231;28;20388;-84
2024/01/26 00:11:18;;;;;;;142.85;47.83;;;8.60;99.90;;;;;;5096437;28;20138;-85
2024/01/26 00:13:44;;;;;;;157.20;50.53;;;8.60;99.90;;;;;;5090688;28;20047;-84
2024/01/26 00:16:10;;;;;;;161.10;49.38;;;8.60;99.90;;;;;;5113478;28;20042;-84
2024/01/26 00:18:38;;;;;;;139.75;48.10;;;8.60;99.90;;;;;;5113562;28;20035;-84
2024/01/26 00:21:04;;;;;;;152.27;48.75;;;8.60;99.90;;;;;;5096708;28;20043;-85
2024/01/26 00:23:30;;;;;;;145.15;48.28;;;8.60;99.90;;;;;;5113043;28;20039;-84
2024/01/26 00:25:57;;;;;;;118.40;43.88;;;8.60;99.90;;;;;;5096359;28;20390;-85
2024/01/26 00:28:23;;;;;;;130.38;47.25;;;8.60;99.90;;;;;;5113084;28;20122;-85
2024/01/26 00:30:48;;;;;;;114.25;42.47;;;8.70;99.90;;;;;;5095825;28;20043;-71
2024/01/26 00:33:14;;;;;;;136.35;45.67;;;8.70;99.90;;;;;;5096057;28;20040;-71
2024/01/26 00:35:40;;;;;;;119.07;45.25;;;8.70;99.90;;;;;;5096015;28;20036;-71
2024/01/26 00:38:06;;;;;;;108.22;43.13;;;8.70;99.90;;;;;;5113016;28;20036;-71
2024/01/26 00:40:31;;;;;;;115.38;44.58;;;8.80;99.90;;;;;;5095685;28;20039;-70
2024/01/26 00:42:57;;;;;;;113.55;42.72;;;8.80;99.90;;;;;;5078841;28;20506;-71
2024/01/26 00:45:23;;;;;;;121.78;44.95;;;8.80;99.90;;;;;;5095583;28;20411;-71
2024/01/26 00:47:49;;;;;;;107.00;43.10;;;8.80;99.90;;;;;;5095592;28;20544;-71
2024/01/26 00:50:14;;;;;;;109.85;43.28;;;8.80;99.90;;;;;;5112270;28;20488;-71
2024/01/26 00:52:40;;;;;;;105.90;43.25;;;8.90;99.90;;;;;;5095397;28;20427;-71
2024/01/26 00:55:08;;;;;;;114.45;44.65;;;8.80;99.90;;;;;;5112430;28;20051;-71
2024/01/26 00:57:34;;;;;;;103.13;42.38;;;8.80;99.90;;;;;;5112390;28;20058;-70
2024/01/26 01:00:00;;;;;;;109.82;43.50;;;8.90;99.90;;;;;;5112686;28;20040;-71
2024/01/26 01:02:25;;;;;;;108.10;43.83;;;8.90;99.90;;;;;;5095566;28;20032;-71
2024/01/26 01:04:51;;;;;;;106.38;43.22;;;8.90;99.90;;;;;;5095283;28;20050;-71
2024/01/26 01:07:17;;;;;;;111.38;45.30;;;8.80;99.90;;;;;;5112098;28;20442;-71
2024/01/26 01:09:43;;;;;;;102.25;42.80;;;8.90;99.90;;;;;;5106719;28;20456;-71
2024/01/26 01:12:09;;;;;;;106.85;42.63;;;8.80;99.90;;;;;;5095023;28;20403;-71
2024/01/26 01:14:36;;;;;;;110.90;43.33;;;8.90;99.90;;;;;;5095191;28;20109;-71
2024/01/26 01:17:04;;;;;;;113.28;44.58;;;8.90;99.90;;;;;;5112429;28;20101;-71
2024/01/26 01:19:30;;;;;;;98.25;42.90;;;8.90;99.90;;;;;;5112284;28;20035;-71
2024/01/26 01:21:56;;;;;;;97.38;41.95;;;8.90;99.90;;;;;;5111842;28;20043;-71
2024/01/26 01:24:23;;;;;;;101.53;43.00;;;8.80;99.90;;;;;;5112291;28;20032;-71
2024/01/26 01:26:49;;;;;;;105.47;43.85;;;8.90;99.90;;;;;;5111994;28;20044;-71
2024/01/26 01:29:15;;;;;;;93.75;40.75;;;8.90;99.90;;;;;;5095053;28;20406;-70
2024/01/26 01:31:40;;;;;;;94.75;41.33;;;8.90;99.90;;;;;;5094852;28;20039;-71
2024/01/26 01:34:06;;;;;;;94.82;41.47;;;8.90;99.90;;;;;;5094797;28;20384;-71
2024/01/26 01:36:32;;;;;;;92.75;41.40;;;9.00;99.90;;;;;;5094920;28;20407;-71
2024/01/26 01:38:58;;;;;;;101.40;42.90;;;9.00;99.90;;;;;;5078350;28;20512;-71
2024/01/26 01:41:23;;;;;;;107.10;45.67;;;8.90;99.90;;;;;;5078222;28;20047;-85
2024/01/26 01:43:56;;;;;;;103.40;45.30;;;9.00;99.90;;;;;;5094845;28;20079;-85
2024/01/26 01:46:22;;;;;;;96.80;42.97;;;9.00;99.90;;;;;;5112252;28;20035;-85
2024/01/26 01:48:49;;;;;;;105.32;43.78;;;9.00;99.90;;;;;;5112026;28;20044;-85
2024/01/26 01:51:16;;;;;;;92.07;41.35;;;9.00;99.90;;;;;;5094981;28;20040;-85
2024/01/26 01:53:42;;;;;;;100.32;44.33;;;9.00;99.90;;;;;;5078358;28;20040;-85
2024/01/26 01:56:12;;;;;;;97.60;43.97;;;9.10;99.90;;;;;;5111751;28;20059;-85
2024/01/26 01:58:39;;;;;;;89.43;41.70;;;9.00;99.90;;;;;;5095179;28;20180;-84
2024/01/26 02:01:05;;;;;;;93.68;44.08;;;9.10;99.90;;;;;;5111929;28;20077;-84
2024/01/26 02:03:31;;;;;;;89.40;42.55;;;9.10;99.90;;;;;;5078107;28;20104;-85
2024/01/26 02:05:57;;;;;;;86.72;41.28;;;9.10;99.90;;;;;;5073175;28;20043;-84
2024/01/26 02:08:23;;;;;;;82.15;41.08;;;9.10;99.90;;;;;;5078786;28;20085;-85
2024/01/26 02:10:49;;;;;;;84.07;40.92;;;9.10;99.90;;;;;;5095871;28;20140;-84
2024/01/26 02:13:15;;;;;;;92.57;43.22;;;9.10;99.90;;;;;;5097591;28;20055;-84
2024/01/26 02:15:41;;;;;;;84.10;40.10;;;9.20;99.90;;;;;;5080716;28;20085;-85
2024/01/26 02:18:07;;;;;;;82.60;41.40;;;9.20;99.90;;;;;;5097222;28;20061;-84
2024/01/26 02:20:33;;;;;;;78.85;38.75;;;9.20;99.90;;;;;;5114944;28;20040;-85
2024/01/26 02:22:59;;;;;;;72.80;37.67;;;9.20;99.90;;;;;;5097785;28;20031;-80
2024/01/26 02:25:24;;;;;;;77.57;40.22;;;9.20;99.90;;;;;;5098064;28;20534;-85
2024/01/26 02:27:53;;;;;;;75.10;38.00;;;9.20;99.90;;;;;;5080141;28;20035;-86
2024/01/26 02:30:19;;;;;;;73.25;39.67;;;9.20;99.90;;;;;;5114694;28;20134;-85
2024/01/26 02:32:45;;;;;;;76.53;38.85;;;9.20;99.90;;;;;;5100450;28;20063;-83
2024/01/26 02:35:11;;;;;;;70.05;38.85;;;9.20;99.90;;;;;;5115930;28;20092;-85
2024/01/26 02:37:37;;;;;;;70.40;37.78;;;9.20;99.90;;;;;;5081701;28;20039;-85
2024/01/26 02:40:03;;;;;;;74.80;38.03;;;9.20;99.90;;;;;;5081400;28;20036;-84
2024/01/26 02:42:29;;;;;;;68.10;36.67;;;9.20;99.90;;;;;;5098863;28;20032;-81
2024/01/26 02:44:55;;;;;;;71.63;38.05;;;9.20;99.90;;;;;;5081825;28;20043;-84
2024/01/26 02:47:20;;;;;;;67.47;38.13;;;9.20;99.90;;;;;;5115513;28;20040;-85
2024/01/26 02:49:46;;;;;;;64.45;37.42;;;9.20;99.90;;;;;;5082072;28;20039;-85
2024/01/26 02:52:12;;;;;;;61.00;35.63;;;9.30;99.90;;;;;;5101196;28;20039;-85
2024/01/26 02:54:37;;;;;;;61.30;36.75;;;9.30;99.90;;;;;;5117973;28;20040;-85
2024/01/26 02:57:03;;;;;;;61.13;36.13;;;9.30;99.90;;;;;;5083608;28;20043;-84
2024/01/26 02:59:29;;;;;;;63.17;36.40;;;9.30;99.90;;;;;;5082580;28;20040;-85
2024/01/26 03:01:55;;;;;;;60.63;36.05;;;9.30;99.90;;;;;;5093201;28;20027;-83
2024/01/26 03:04:21;;;;;;;59.75;36.15;;;9.30;99.90;;;;;;5098201;28;20040;-85
2024/01/26 03:06:47;;;;;;;52.63;32.35;;;9.40;99.90;;;;;;5098488;28;20048;-84
2024/01/26 03:09:13;;;;;;;51.30;32.47;;;9.40;99.90;;;;;;5081661;28;20043;-85
2024/01/26 03:11:42;;;;;;;54.42;33.42;;;9.40;99.90;;;;;;5098565;28;20035;-85
2024/01/26 03:14:09;;;;;;;57.72;35.00;;;9.40;99.90;;;;;;5115010;28;20040;-85
2024/01/26 03:16:38;;;;;;;54.08;33.08;;;9.40;99.90;;;;;;5098352;28;20050;-85
2024/01/26 03:19:04;;;;;;;55.05;34.88;;;9.40;99.90;;;;;;5098581;28;20050;-85
2024/01/26 03:21:29;;;;;;;51.25;33.53;;;9.40;99.90;;;;;;5081442;28;20040;-83
2024/01/26 03:23:55;;;;;;;54.53;33.88;;;9.40;99.90;;;;;;5080762;28;20043;-85
2024/01/26 03:26:21;;;;;;;51.47;33.47;;;9.40;99.90;;;;;;5080913;28;20093;-84
2024/01/26 03:28:47;;;;;;;57.30;34.70;;;9.40;99.90;;;;;;5097532;28;20043;-85
2024/01/26 03:31:13;;;;;;;56.10;34.28;;;9.40;99.90;;;;;;5114641;28;20046;-83
2024/01/26 03:33:40;;;;;;;53.22;34.75;;;9.40;99.90;;;;;;5096966;28;20039;-85
2024/01/26 03:36:07;;;;;;;53.60;32.92;;;9.40;99.90;;;;;;5114733;28;20488;-83
2024/01/26 03:38:33;;;;;;;50.53;32.88;;;9.50;99.90;;;;;;5097982;28;20476;-82
2024/01/26 03:40:59;;;;;;;51.65;33.00;;;9.50;99.90;;;;;;5097705;28;20043;-84
2024/01/26 03:43:25;;;;;;;53.03;33.53;;;9.50;99.90;;;;;;5096103;28;20036;-84
2024/01/26 03:45:51;;;;;;;51.42;32.13;;;9.50;99.90;;;;;;5097372;28;20099;-83
2024/01/26 03:48:17;;;;;;;52.83;32.95;;;9.50;99.90;;;;;;5080113;28;20136;-83
2024/01/26 03:50:42;;;;;;;54.75;34.17;;;9.50;99.90;;;;;;5097244;28;20047;-85
2024/01/26 03:53:08;;;;;;;50.78;33.00;;;9.50;99.90;;;;;;5079792;28;20051;-85
2024/01/26 03:55:34;;;;;;;48.70;31.95;;;9.50;99.90;;;;;;5080185;28;20122;-83
2024/01/26 03:58:00;;;;;;;53.88;34.75;;;9.50;99.90;;;;;;5091189;28;20510;-82
2024/01/26 04:00:25;;;;;;;53.10;33.97;;;9.50;99.90;;;;;;5096653;28;20046;-71
2024/01/26 04:02:51;;;;;;;57.30;36.10;;;9.60;99.90;;;;;;5079416;28;20055;-71
2024/01/26 04:05:17;;;;;;;54.92;35.25;;;9.60;99.90;;;;;;5096630;28;20530;-71
2024/01/26 04:07:43;;;;;;;53.95;34.08;;;9.60;99.90;;;;;;5113317;28;20036;-71
2024/01/26 04:10:09;;;;;;;52.42;32.53;;;9.60;99.90;;;;;;5113215;28;20039;-71
2024/01/26 04:12:35;;;;;;;52.30;33.08;;;9.60;99.90;;;;;;5113211;28;20035;-71
2024/01/26 04:15:00;;;;;;;52.90;33.97;;;9.60;99.90;;;;;;5079274;28;20040;-71
2024/01/26 04:17:26;;;;;;;50.72;32.40;;;9.60;99.90;;;;;;5096518;28;20039;-72
2024/01/26 04:19:52;;;;;;;54.72;33.88;;;9.60;99.90;;;;;;5113222;28;20040;-71
2024/01/26 04:22:19;;;;;;;54.45;33.67;;;9.70;99.90;;;;;;5096049;28;20031;-70
2024/01/26 04:24:45;;;;;;;54.88;33.80;;;9.60;99.90;;;;;;5113299;28;20441;-71
2024/01/26 04:27:10;;;;;;;58.72;34.03;;;9.70;99.90;;;;;;5113238;28;20172;-71
2024/01/26 04:29:36;;;;;;;50.65;32.95;;;9.60;99.90;;;;;;5096269;28;20465;-70
2024/01/26 04:32:04;;;;;;;49.45;31.98;;;9.70;99.90;;;;;;5112864;28;20101;-70
2024/01/26 04:34:29;;;;;;;49.78;31.40;;;9.70;99.90;;;;;;5096009;28;20506;-71
2024/01/26 04:36:55;;;;;;;50.42;32.05;;;9.70;99.90;;;;;;5078848;28;20039;-71
2024/01/26 04:39:21;;;;;;;48.78;30.95;;;9.70;99.90;;;;;;5095867;28;20046;-70
2024/01/26 04:41:47;;;;;;;49.55;31.65;;;9.70;99.90;;;;;;5112867;28;20032;-70
2024/01/26 04:44:13;;;;;;;49.40;32.28;;;9.70;99.90;;;;;;5079003;28;20040;-70
2024/01/26 04:46:39;;;;;;;50.65;31.25;;;9.70;99.90;;;;;;5078569;28;20200;-71
2024/01/26 04:49:05;;;;;;;48.88;31.65;;;9.70;99.90;;;;;;5112845;28;20443;-71
2024/01/26 04:51:31;;;;;;;50.90;33.50;;;9.70;99.90;;;;;;5095867;28;20047;-70
2024/01/26 04:53:57;;;;;;;52.00;33.63;;;9.70;99.90;;;;;;5089671;28;20034;-71
2024/01/26 04:56:23;;;;;;;52.47;33.30;;;9.80;99.90;;;;;;5112382;28;20462;-71
2024/01/26 04:58:48;;;;;;;53.50;35.10;;;9.80;99.90;;;;;;5095965;28;20143;-71
2024/01/26 05:01:14;;;;;;;53.13;33.78;;;9.80;99.90;;;;;;5095323;28;20035;-71
2024/01/26 05:03:40;;;;;;;49.65;33.60;;;9.80;99.90;;;;;;5095559;28;20036;-70
2024/01/26 05:06:06;;;;;;;50.85;32.85;;;9.80;99.90;;;;;;5095627;28;20036;-71
2024/01/26 05:08:32;;;;;;;52.78;33.70;;;9.80;99.90;;;;;;5112105;28;20039;-71
2024/01/26 05:10:58;;;;;;;53.47;35.13;;;9.80;99.90;;;;;;5112317;28;20080;-71
2024/01/26 05:13:23;;;;;;;50.55;33.80;;;9.90;99.90;;;;;;5112243;28;20040;-71
2024/01/26 05:15:49;;;;;;;52.00;33.13;;;9.90;99.90;;;;;;5111837;28;20496;-70
2024/01/26 05:18:15;;;;;;;49.78;34.70;;;9.90;99.90;;;;;;5112385;28;20031;-70
2024/01/26 05:20:41;;;;;;;51.10;34.65;;;9.90;99.90;;;;;;5095027;28;20038;-71
2024/01/26 05:23:07;;;;;;;47.58;32.58;;;9.90;99.90;;;;;;5078141;28;20067;-70
2024/01/26 05:25:33;;;;;;;50.17;32.60;;;10.00;99.90;;;;;;5095074;28;20036;-70
2024/01/26 05:27:59;;;;;;;51.85;35.15;;;10.00;99.90;;;;;;5095259;28;20032;-70
2024/01/26 05:30:26;;;;;;;50.90;35.10;;;10.00;99.90;;;;;;5078239;28;20035;-70
2024/01/26 05:32:52;;;;;;;51.75;34.25;;;10.00;99.90;;;;;;5078257;28;20125;-70
2024/01/26 05:35:21;;;;;;;47.15;34.22;;;10.00;99.90;;;;;;5112358;28;20388;-69
2024/01/26 05:37:46;;;;;;;44.80;31.58;;;10.00;99.90;;;;;;5111890;28;20043;-70
2024/01/26 05:40:13;;;;;;;43.35;30.75;;;10.10;99.90;;;;;;5094823;28;20047;-70
2024/01/26 05:42:38;;;;;;;43.53;30.88;;;10.10;99.90;;;;;;5111722;28;20062;-69
2024/01/26 05:45:05;;;;;;;41.90;29.48;;;10.10;99.90;;;;;;5112293;28;20051;-68
2024/01/26 05:47:31;;;;;;;43.83;30.73;;;10.10;99.90;;;;;;5095475;28;20050;-69
2024/01/26 05:49:57;;;;;;;42.03;29.88;;;10.10;99.90;;;;;;5090009;28;20483;-69
2024/01/26 05:52:22;;;;;;;41.58;28.67;;;10.20;99.90;;;;;;5095256;28;20096;-70
2024/01/26 05:54:48;;;;;;;41.65;29.88;;;10.10;99.90;;;;;;5094838;28;20074;-69
2024/01/26 05:57:15;;;;;;;40.58;28.27;;;10.20;99.90;;;;;;5070991;28;20048;-69
2024/01/26 05:59:42;;;;;;;42.22;30.33;;;10.20;99.90;;;;;;5074551;28;20036;-69
2024/01/26 06:02:08;;;;;;;40.08;29.40;;;10.20;99.90;;;;;;5091353;28;20072;-69
2024/01/26 06:04:33;;;;;;;38.38;27.23;;;10.20;99.90;;;;;;5058177;28;20484;-69
2024/01/26 06:07:00;;;;;;;39.88;28.75;;;10.20;99.90;;;;;;5078345;28;20510;-70
2024/01/26 06:09:26;;;;;;;38.03;28.85;;;10.20;99.90;;;;;;5095801;28;20398;-70
2024/01/26 06:11:51;;;;;;;39.92;27.10;;;10.20;99.90;;;;;;5080234;28;20044;-70
2024/01/26 06:14:17;;;;;;;39.72;28.92;;;10.30;99.90;;;;;;5081440;28;20036;-70
2024/01/26 06:16:46;;;;;;;38.00;26.90;;;10.30;99.90;;;;;;5080558;28;20051;-71
2024/01/26 06:19:12;;;;;;;38.88;26.80;;;10.30;99.90;;;;;;5098698;28;20508;-70
2024/01/26 06:21:38;;;;;;;37.25;26.70;;;10.30;99.90;;;;;;5079108;28;20055;-71
2024/01/26 06:24:04;;;;;;;38.67;26.23;;;10.30;99.90;;;;;;5078597;28;20044;-70
2024/01/26 06:26:29;;;;;;;35.00;24.10;;;10.30;99.90;;;;;;5094963;28;20039;-70
2024/01/26 06:28:55;;;;;;;34.72;26.50;;;10.40;99.90;;;;;;5061483;28;20051;-69
2024/01/26 06:31:25;;;;;;;36.45;26.33;;;10.30;99.90;;;;;;5095071;28;20039;-70
2024/01/26 06:33:51;;;;;;;37.20;25.83;;;10.30;99.90;;;;;;5077826;28;20127;-70
2024/01/26 06:36:17;;;;;;;33.75;23.67;;;10.30;99.90;;;;;;5078021;28;20495;-69
2024/01/26 06:38:43;;;;;;;36.00;24.55;;;10.30;99.90;;;;;;5078176;28;20075;-70
2024/01/26 06:41:08;;;;;;;32.67;23.90;;;10.40;99.90;;;;;;5077976;28;20044;-69
2024/01/26 06:43:34;;;;;;;33.03;23.38;;;10.30;99.90;;;;;;5060983;28;20048;-70
2024/01/26 06:46:00;;;;;;;35.17;22.77;;;10.30;99.90;;;;;;5094452;28;20035;-70
2024/01/26 06:48:26;;;;;;;33.50;22.20;;;10.40;99.90;;;;;;5094812;28;20040;-69
2024/01/26 06:50:52;;;;;;;33.50;22.75;;;10.40;99.90;;;;;;5094299;28;20051;-69
2024/01/26 06:53:18;;;;;;;27.23;19.38;;;10.40;99.90;;;;;;5060899;28;20077;-69
2024/01/26 06:55:45;;;;;;;31.58;20.15;;;10.40;99.90;;;;;;5094588;28;20040;-68
2024/01/26 06:58:11;;;;;;;32.58;21.65;;;10.30;99.90;;;;;;5077722;28;20507;-69
2024/01/26 07:00:37;;;;;;;28.42;20.33;;;10.40;99.90;;;;;;5077689;28;20039;-68
2024/01/26 07:03:03;;;;;;;29.00;20.38;;;10.40;99.90;;;;;;5060542;28;20031;-70
2024/01/26 07:05:29;;;;;;;28.20;21.15;;;10.40;99.90;;;;;;5094107;28;20040;-69
2024/01/26 07:07:56;;;;;;;28.50;20.48;;;10.40;99.90;;;;;;5044431;28;20032;-69
2024/01/26 07:10:23;;;;;;;29.00;19.50;;;10.40;99.90;;;;;;5077494;28;20051;-70
2024/01/26 07:12:49;;;;;;;27.85;20.13;;;10.40;99.90;;;;;;5077118;28;20044;-70
2024/01/26 07:15:15;;;;;;;27.58;19.23;;;10.40;99.90;;;;;;5093891;28;20433;-69
2024/01/26 07:17:40;;;;;;;21.63;16.40;;;10.30;99.90;;;;;;5093709;28;20036;-69
2024/01/26 07:20:07;;;;;;;22.08;16.30;;;10.40;99.90;;;;;;5060674;28;20071;-69
2024/01/26 07:22:33;;;;;;;22.45;16.70;;;10.40;99.90;;;;;;5076995;28;20035;-70
2024/01/26 07:24:59;;;;;;;24.35;16.95;;;10.40;99.90;;;;;;5077120;28;20043;-70
2024/01/26 07:27:25;;;;;;;21.95;16.70;;;10.40;99.90;;;;;;5077455;28;20126;-69
2024/01/26 07:29:50;;;;;;;23.40;17.27;;;10.40;99.90;;;;;;5077029;28;20556;-82
2024/01/26 07:32:16;;;;;;;22.92;16.48;;;10.40;99.90;;;;;;5077289;28;20044;-82
2024/01/26 07:34:42;;;;;;;22.27;17.65;;;10.40;99.90;;;;;;5077125;28;20039;-82
2024/01/26 07:37:08;;;;;;;19.67;14.70;;;10.30;99.90;;;;;;5060156;28;20040;-83
2024/01/26 07:39:34;;;;;;;22.00;15.98;;;10.40;99.90;;;;;;5060199;28;20040;-83
2024/01/26 07:42:00;;;;;;;22.60;17.73;;;10.40;99.90;;;;;;5076463;28;20366;-80
2024/01/26 07:44:26;;;;;;;22.77;16.77;;;10.40;99.90;;;;;;5077067;28;20853;-81
2024/01/26 07:46:51;;;;;;;20.25;15.25;;;10.30;99.90;;;;;;5060089;28;20046;-82
2024/01/26 07:49:17;;;;;;;21.65;16.42;;;10.40;99.90;;;;;;5076725;28;20043;-83
2024/01/26 07:51:43;;;;;;;22.80;15.85;;;10.40;99.90;;;;;;5076986;28;20040;-83
2024/01/26 07:54:09;;;;;;;23.88;16.30;;;10.40;99.90;;;;;;5060189;28;20132;-81
2024/01/26 07:56:35;;;;;;;24.08;15.98;;;10.40;99.90;;;;;;5060062;28;20511;-83
2024/01/26 07:59:00;;;;;;;22.73;15.93;;;10.40;99.90;;;;;;5076741;28;20044;-81
2024/01/26 08:01:26;;;;;;;19.83;15.25;;;10.40;99.90;;;;;;5076535;28;20565;-78
2024/01/26 08:03:52;;;;;;;22.08;16.55;;;10.40;99.90;;;;;;5077136;28;20043;-82
2024/01/26 08:06:18;;;;;;;21.83;15.10;;;10.40;99.90;;;;;;5076564;28;20040;-82
2024/01/26 08:08:43;;;;;;;19.65;14.55;;;10.40;99.90;;;;;;5059736;28;20210;-82
2024/01/26 08:11:09;;;;;;;18.90;15.10;;;10.40;99.90;;;;;;5076308;28;20040;-82
2024/01/26 08:13:35;;;;;;;18.65;14.93;;;10.40;99.90;;;;;;5059738;28;20043;-84
2024/01/26 08:16:01;;;;;;;19.40;15.60;;;10.40;99.90;;;;;;5076158;28;20047;-82
2024/01/26 08:18:27;;;;;;;20.48;14.93;;;10.40;99.90;;;;;;5093265;28;20044;-81
2024/01/26 08:20:53;;;;;;;20.90;14.60;;;10.40;99.90;;;;;;5059482;28;20097;-82
2024/01/26 08:23:18;;;;;;;18.98;14.20;;;10.40;99.90;;;;;;5059591;28;20536;-83
2024/01/26 08:25:44;;;;;;;20.05;14.43;;;10.50;99.90;;;;;;5059449;28;20075;-83
2024/01/26 08:28:10;;;;;;;18.48;13.95;;;10.40;99.90;;;;;;5092174;28;20127;-83
2024/01/26 08:30:36;;;;;;;19.17;12.63;;;10.50;99.90;;;;;;5092886;28;20522;-82
2024/01/26 08:33:02;;;;;;;19.23;13.77;;;10.50;99.90;;;;;;5076126;28;20044;-82
2024/01/26 08:35:27;;;;;;;18.02;12.95;;;10.50;99.90;;;;;;5092679;28;20040;-82
2024/01/26 08:37:53;;;;;;;16.70;12.32;;;10.50;99.90;;;;;;5075605;28;20420;-82
2024/01/26 08:40:20;;;;;;;17.73;12.57;;;10.50;99.90;;;;;;5109817;28;20071;-83
2024/01/26 08:42:46;;;;;;;15.25;11.63;;;10.50;99.90;;;;;;5079170;28;20035;-81
2024/01/26 08:45:12;;;;;;;15.35;11.98;;;10.60;99.90;;;;;;5112936;28;20055;-83
2024/01/26 08:47:38;;;;;;;16.27;11.85;;;10.60;99.90;;;;;;5112912;28;20040;-82
2024/01/26 08:50:05;;;;;;;14.80;10.30;;;10.60;99.90;;;;;;5095928;28;20130;-83
2024/01/26 08:52:31;;;;;;;14.25;10.25;;;10.70;99.90;;;;;;5078966;28;20067;-82
2024/01/26 08:54:58;;;;;;;15.18;11.65;;;10.70;99.90;;;;;;5078764;28;20036;-83
2024/01/26 08:57:24;;;;;;;14.45;11.25;;;10.80;99.90;;;;;;5112412;28;20051;-83
2024/01/26 08:59:50;;;;;;;14.15;11.02;;;10.70;99.90;;;;;;5112495;28;20043;-81
2024/01/26 09:02:15;;;;;;;13.88;10.93;;;10.80;99.90;;;;;;5112229;28;20081;-82
2024/01/26 09:04:41;;;;;;;14.27;10.60;;;10.80;99.90;;;;;;5095388;28;20066;-83
2024/01/26 09:07:07;;;;;;;13.98;10.20;;;10.90;99.90;;;;;;5078810;28;20047;-82
2024/01/26 09:09:33;;;;;;;13.63;10.20;;;10.90;99.90;;;;;;5095534;28;20583;-81
2024/01/26 09:11:59;;;;;;;14.57;11.07;;;10.90;99.90;;;;;;5112517;28;20449;-80
2024/01/26 09:14:25;;;;;;;15.18;11.45;;;10.90;99.90;;;;;;5095506;28;20048;-80
2024/01/26 09:16:52;;;;;;;15.40;11.63;;;10.90;99.90;;;;;;5112091;28;20043;-82
2024/01/26 09:19:18;;;;;;;14.65;11.35;;;11.00;99.90;;;;;;5095293;28;20118;-83
2024/01/26 09:21:44;;;;;;;15.48;11.88;;;11.00;99.90;;;;;;5095917;28;20040;-82
2024/01/26 09:24:10;;;;;;;15.25;11.57;;;11.00;99.90;;;;;;5112355;28;20089;-83
2024/01/26 09:26:39;;;;;;;17.02;12.13;;;11.00;99.90;;;;;;5095476;28;20484;-82
2024/01/26 09:29:05;;;;;;;16.40;11.63;;;11.10;99.90;;;;;;5095313;28;20048;-82
2024/01/26 09:31:31;;;;;;;16.88;13.02;;;11.10;99.90;;;;;;5112119;28;20039;-80
2024/01/26 09:33:56;;;;;;;15.93;12.07;;;11.10;99.90;;;;;;5085966;27;20066;-82
2024/01/26 09:36:22;;;;;;;16.30;12.25;;;11.00;99.90;;;;;;5108463;28;20072;-82
2024/01/26 09:38:49;;;;;;;16.33;12.80;;;11.10;99.90;;;;;;5091714;28;20047;-81
2024/01/26 09:41:15;;;;;;;15.95;11.98;;;11.10;99.90;;;;;;5074948;28;20058;-81
2024/01/26 09:43:41;;;;;;;17.23;12.50;;;11.10;99.90;;;;;;5074980;28;20044;-79
2024/01/26 09:46:07;;;;;;;6.72;2.65;;;11.10;99.90;;;;;;5074814;28;20046;-80
2024/01/26 09:48:34;;;;;;;6.47;1.90;;;11.00;99.90;;;;;;5091911;28;20510;-79
2024/01/26 09:51:01;;;;;;;4.68;1.48;;;10.70;99.90;;;;;;5091711;28;20400;-79
2024/01/26 09:53:27;;;;;;;5.85;1.38;;;10.40;99.90;;;;;;5074508;28;20048;-81
2024/01/26 09:55:54;;;;;;;5.00;1.38;;;10.30;99.90;;;;;;5091649;28;20043;-82
2024/01/26 09:58:20;;;;;;;4.60;1.10;;;10.10;99.90;;;;;;5091711;28;20055;-81
2024/01/26 10:00:46;;;;;;;4.00;1.00;;;10.10;99.90;;;;;;5057897;28;20028;-81
2024/01/26 10:03:13;;;;;;;4.80;1.10;;;9.90;99.90;;;;;;5074957;28;20126;-82
2024/01/26 10:05:39;;;;;;;5.78;1.33;;;9.80;99.90;;;;;;5091298;28;20097;-82
2024/01/26 10:08:09;;;;;;;4.95;1.15;;;9.80;99.90;;;;;;4946631;28;20048;-81
2024/01/26 10:10:35;;;;;;;5.15;1.00;;;9.80;99.90;;;;;;5082205;28;20536;-81
2024/01/26 10:13:00;;;;;;;6.47;1.20;;;9.70;99.90;;;;;;5095042;28;20039;-80
2024/01/26 10:15:26;;;;;;;4.90;1.02;;;9.70;99.90;;;;;;5078131;28;20088;-83
2024/01/26 10:17:54;;;;;;;7.13;1.40;;;9.70;99.90;;;;;;5095051;28;20122;-83
2024/01/26 10:20:20;;;;;;;5.57;1.30;;;9.60;99.90;;;;;;5101697;28;20506;-82
2024/01/26 10:22:46;;;;;;;6.95;1.40;;;9.60;99.90;;;;;;5131779;28;20039;-82
2024/01/26 10:25:13;;;;;;;9.27;1.58;;;9.50;99.90;;;;;;5132591;28;20098;-82
2024/01/26 10:27:40;;;;;;;9.77;1.52;;;9.40;99.90;;;;;;5098051;28;20043;-81
2024/01/26 10:30:08;;;;;;;7.50;1.42;;;9.30;99.90;;;;;;5132023;28;20045;-81
2024/01/26 10:32:34;;;;;;;9.00;1.67;;;9.30;99.90;;;;;;5128245;28;20100;-82
2024/01/26 10:35:02;;;;;;;11.85;1.75;;;9.30;99.90;;;;;;5131860;28;20058;-83
2024/01/26 10:37:30;;;;;;;9.10;1.60;;;9.20;99.90;;;;;;5114961;28;20043;-82
2024/01/26 10:39:58;;;;;;;9.52;1.98;;;9.20;99.90;;;;;;5114772;28;20035;-82
2024/01/26 10:42:24;;;;;;;9.80;1.95;;;9.20;99.90;;;;;;5132171;28;20039;-83
2024/01/26 10:44:52;;;;;;;14.02;2.30;;;9.10;99.90;;;;;;5114764;28;20045;-83
2024/01/26 10:47:18;;;;;;;12.18;2.45;;;9.10;99.90;;;;;;5115078;28;20513;-82
2024/01/26 10:49:49;;;;;;;14.05;2.60;;;9.10;99.90;;;;;;5131976;28;20112;-82
2024/01/26 10:52:19;;;;;;;12.50;2.60;;;9.10;99.90;;;;;;5133827;27;20098;-83
2024/01/26 10:54:50;;;;;;;13.70;2.40;;;9.00;99.90;;;;;;5118281;27;20035;-81
2024/01/26 10:57:16;;;;;;;11.93;2.20;;;9.10;99.90;;;;;;5101015;27;20089;-81
2024/01/26 10:59:43;;;;;;;11.95;2.20;;;9.10;99.90;;;;;;5135518;27;20039;-80
2024/01/26 11:02:22;;;;;;;14.82;2.60;;;9.00;99.90;;;;;;5118331;27;20050;-81
2024/01/26 11:04:49;;;;;;;12.57;2.40;;;9.00;99.90;;;;;;5135241;27;20096;-81
2024/01/26 11:07:18;;;;;;;20.40;3.00;;;9.00;99.90;;;;;;5118144;27;20129;-81
2024/01/26 11:09:46;;;;;;;15.68;2.65;;;8.90;99.90;;;;;;5118329;27;20043;-79
2024/01/26 11:12:25;;;;;;;15.90;2.45;;;8.90;99.90;;;;;;5135291;27;20039;-82
2024/01/26 11:15:08;;;;;;;12.65;2.78;;;8.90;99.90;;;;;;5118501;27;20046;-80
2024/01/26 11:17:42;;;;;;;14.00;2.70;;;8.90;99.90;;;;;;5117792;27;20118;-81
2024/01/26 11:20:22;;;;;;;16.60;2.72;;;8.90;99.90;;;;;;5135088;27;20071;-79
2024/01/26 11:23:11;;;;;;;13.20;2.90;;;8.90;99.90;;;;;;5118231;27;20042;-81
2024/01/26 11:25:50;;;;;;;12.52;2.50;;;8.90;99.90;;;;;;5135095;27;20058;-80
2024/01/26 11:28:25;;;;;;;10.55;2.53;;;8.90;99.90;;;;;;5117473;27;20479;-80
2024/01/26 11:30:59;;;;;;;14.65;2.95;;;8.90;99.90;;;;;;5134650;27;20127;-80
2024/01/26 11:33:37;;;;;;;13.57;2.70;;;8.80;99.90;;;;;;5134866;27;20039;-81
2024/01/26 11:36:05;;;;;;;14.90;2.90;;;8.70;99.90;;;;;;5134930;27;20118;-80
2024/01/26 11:38:34;;;;;;;15.02;2.75;;;8.80;99.90;;;;;;5117896;27;20035;-81
2024/01/26 11:41:01;;;;;;;13.90;2.70;;;8.70;99.90;;;;;;5134655;27;20035;-81
2024/01/26 11:43:28;;;;;;;16.00;3.20;;;8.70;99.90;;;;;;5134575;27;20054;-82
2024/01/26 11:45:56;;;;;;;13.77;2.55;;;8.60;99.90;;;;;;5117699;27;20039;-82
2024/01/26 11:48:22;;;;;;;15.90;2.88;;;8.60;99.90;;;;;;5134457;27;20050;-82
2024/01/26 11:50:48;;;;;;;16.25;2.75;;;8.70;99.90;;;;;;5117434;27;20042;-80
2024/01/26 11:53:15;;;;;;;17.08;2.67;;;8.70;99.90;;;;;;5134633;27;20039;-82
2024/01/26 11:55:42;;;;;;;14.30;2.72;;;8.70;99.90;;;;;;5117456;27;20039;-80
2024/01/26 11:58:09;;;;;;;14.55;2.70;;;8.70;99.90;;;;;;5134126;27;20053;-80
2024/01/26 12:00:35;;;;;;;14.02;2.78;;;8.80;99.90;;;;;;5134481;27;20043;-80
2024/01/26 12:03:09;;;;;;;13.98;2.70;;;8.70;99.90;;;;;;5099230;28;20031;-79
2024/01/26 12:05:36;;;;;;;35.88;17.20;;;8.70;99.90;;;;;;5116926;27;20126;-80
2024/01/26 12:08:05;;;;;;;16.70;3.17;;;8.70;99.90;;;;;;5100117;27;20031;-80
2024/01/26 12:10:34;;;;;;;15.65;3.20;;;8.70;99.90;;;;;;5133993;27;20073;-77
2024/01/26 12:13:00;;;;;;;15.50;3.90;;;8.60;99.90;;;;;;5117118;27;20035;-80
2024/01/26 12:15:30;;;;;;;15.35;2.67;;;8.60;99.90;;;;;;5133850;27;20138;-81
2024/01/26 12:18:00;;;;;;;18.23;3.78;;;8.60;99.90;;;;;;5100494;27;20069;-81
2024/01/26 12:20:26;;;;;;;18.83;3.35;;;8.50;99.90;;;;;;5133663;27;20039;-80
2024/01/26 12:22:55;;;;;;;13.85;2.53;;;8.50;99.90;;;;;;5116706;27;20091;-80
2024/01/26 12:25:26;;;;;;;15.85;3.00;;;8.50;99.90;;;;;;5115795;27;20052;-80
2024/01/26 12:27:52;;;;;;;16.15;3.40;;;8.40;99.90;;;;;;5112967;28;20048;-80
2024/01/26 12:30:18;;;;;;;16.50;3.53;;;8.40;99.90;;;;;;5079192;28;20105;-79
2024/01/26 12:32:44;;;;;;;18.25;3.90;;;8.30;99.90;;;;;;5112962;28;20043;-80